createdAt,value
2023-04-27T00:02:24.136Z,16.31
2023-04-27T00:04:53.176Z,16.52
2023-04-27T00:07:21.662Z,16.33
2023-04-27T00:09:51.912Z,16.42
2023-04-27T00:12:20.250Z,16.08
2023-04-27T00:14:48.611Z,15.89
2023-04-27T00:17:18.235Z,16.11
2023-04-27T00:19:47.505Z,15.78
2023-04-27T00:22:16.009Z,16.00
2023-04-27T00:24:44.295Z,16.14
2023-04-27T00:27:13.595Z,16.30
2023-04-27T00:29:42.975Z,16.35
2023-04-27T00:32:11.355Z,16.30
2023-04-27T00:34:41.222Z,16.04
2023-04-27T00:37:10.032Z,16.33
2023-04-27T00:39:38.265Z,16.23
2023-04-27T00:42:11.303Z,16.28
2023-04-27T00:44:40.117Z,16.24
2023-04-27T00:47:08.887Z,16.01
2023-04-27T00:49:37.287Z,16.24
2023-04-27T00:52:07.477Z,16.08
2023-04-27T00:54:36.199Z,16.27
2023-04-27T00:57:05.137Z,16.09
2023-04-27T00:59:33.497Z,16.29
2023-04-27T01:02:02.118Z,16.11
2023-04-27T01:04:32.424Z,16.05
2023-04-27T01:07:02.540Z,16.11
2023-04-27T01:09:32.437Z,16.29
2023-04-27T01:12:01.249Z,16.31
2023-04-27T01:14:29.521Z,16.25
2023-04-27T01:16:58.286Z,16.08
2023-04-27T01:19:26.791Z,16.17
2023-04-27T01:21:55.022Z,15.85
2023-04-27T01:24:24.647Z,15.90
2023-04-27T01:26:53.943Z,15.82
2023-04-27T01:29:22.440Z,15.91
2023-04-27T01:31:50.859Z,15.95
2023-04-27T01:34:19.109Z,15.94
2023-04-27T01:36:47.436Z,15.88
2023-04-27T01:39:16.488Z,15.77
2023-04-27T01:41:46.187Z,15.98
2023-04-27T01:44:14.454Z,15.79
2023-04-27T01:46:42.835Z,15.85
2023-04-27T01:49:11.244Z,15.68
2023-04-27T01:51:39.473Z,15.83
2023-04-27T01:54:07.740Z,15.62
2023-04-27T01:56:35.945Z,15.71
2023-04-27T01:59:05.523Z,15.81
2023-04-27T02:01:33.943Z,15.76
2023-04-27T02:04:02.381Z,15.83
2023-04-27T02:06:31.317Z,15.80
2023-04-27T02:08:59.653Z,15.83
2023-04-27T02:11:27.842Z,15.87
2023-04-27T02:13:56.084Z,15.86
2023-04-27T02:16:25.899Z,15.71
2023-04-27T02:18:54.607Z,15.34
2023-04-27T02:21:23.158Z,14.87
2023-04-27T02:23:51.579Z,15.62
2023-04-27T02:26:20.518Z,15.64
2023-04-27T02:28:50.076Z,15.54
2023-04-27T02:31:18.800Z,15.47
2023-04-27T02:33:48.401Z,15.82
2023-04-27T02:36:16.637Z,15.44
2023-04-27T02:38:44.950Z,15.73
2023-04-27T02:41:13.141Z,15.81
2023-04-27T02:43:41.345Z,15.81
2023-04-27T02:46:09.677Z,15.66
2023-04-27T02:48:37.895Z,15.60
2023-04-27T02:51:07.962Z,15.48
2023-04-27T02:53:36.363Z,15.30
2023-04-27T02:56:04.978Z,15.27
2023-04-27T02:58:33.204Z,15.19
2023-04-27T03:01:01.551Z,15.07
2023-04-27T03:03:29.928Z,15.05
2023-04-27T03:05:58.247Z,15.08
2023-04-27T03:08:28.280Z,14.98
2023-04-27T03:10:56.521Z,14.81
2023-04-27T03:13:24.814Z,14.58
2023-04-27T03:15:53.033Z,14.48
2023-04-27T03:18:21.271Z,14.65
2023-04-27T03:20:49.555Z,14.65
2023-04-27T03:23:17.830Z,14.42
2023-04-27T03:25:48.884Z,14.08
2023-04-27T03:28:17.165Z,14.13
2023-04-27T03:30:45.364Z,14.24
2023-04-27T03:33:14.385Z,14.19
2023-04-27T03:35:42.708Z,14.10
2023-04-27T03:38:10.998Z,14.08
2023-04-27T03:40:39.254Z,14.01
2023-04-27T03:43:08.826Z,13.93
2023-04-27T03:45:37.110Z,13.90
2023-04-27T03:48:06.365Z,13.85
2023-04-27T03:50:34.853Z,13.60
2023-04-27T03:53:03.226Z,13.54
2023-04-27T03:55:31.746Z,13.71
2023-04-27T03:58:00.022Z,13.82
2023-04-27T04:00:29.665Z,13.62
2023-04-27T04:02:58.129Z,13.67
2023-04-27T04:05:26.659Z,13.61
2023-04-27T04:07:54.890Z,13.57
2023-04-27T04:10:23.086Z,13.55
2023-04-27T04:12:51.364Z,13.53
2023-04-27T04:15:20.337Z,13.28
2023-04-27T04:17:50.157Z,13.22
2023-04-27T04:20:19.200Z,13.48
2023-04-27T04:22:47.424Z,13.46
2023-04-27T04:25:15.719Z,13.75
2023-04-27T04:27:44.693Z,14.01
2023-04-27T04:30:13.925Z,14.12
2023-04-27T04:32:42.478Z,14.23
2023-04-27T04:35:12.945Z,14.51
2023-04-27T04:37:41.193Z,14.88
2023-04-27T04:40:10.543Z,14.68
2023-04-27T04:42:38.974Z,14.93
2023-04-27T04:45:08.380Z,14.98
2023-04-27T04:47:36.634Z,15.12
2023-04-27T04:50:05.356Z,15.03
2023-04-27T04:52:35.032Z,15.43
2023-04-27T04:55:03.441Z,15.09
2023-04-27T04:57:32.142Z,14.69
2023-04-27T05:00:01.910Z,14.14
2023-04-27T05:02:30.251Z,14.31
2023-04-27T05:04:58.675Z,14.63
2023-04-27T05:07:26.968Z,14.43
2023-04-27T05:09:57.250Z,14.99
2023-04-27T05:12:25.469Z,15.49
2023-04-27T05:14:54.001Z,15.66
2023-04-27T05:17:22.228Z,15.79
2023-04-27T05:19:50.534Z,15.42
2023-04-27T05:22:18.728Z,15.58
2023-04-27T05:24:46.897Z,16.00
2023-04-27T05:27:17.058Z,15.90
2023-04-27T05:29:45.348Z,15.81
2023-04-27T05:32:13.588Z,15.68
2023-04-27T05:34:43.769Z,15.07
2023-04-27T05:37:13.411Z,15.56
2023-04-27T05:39:42.343Z,15.44
2023-04-27T05:42:10.684Z,15.71
2023-04-27T05:44:40.280Z,15.90
2023-04-27T05:47:08.500Z,16.29
2023-04-27T05:49:37.182Z,16.32
2023-04-27T05:52:05.755Z,16.70
2023-04-27T05:54:34.022Z,16.74
2023-04-27T05:57:02.241Z,16.40
2023-04-27T05:59:30.648Z,16.61
2023-04-27T06:02:00.351Z,16.68
2023-04-27T06:04:29.830Z,17.48
2023-04-27T06:06:58.132Z,17.51
2023-04-27T06:09:26.574Z,17.22
2023-04-27T06:11:54.860Z,17.98
2023-04-27T06:14:23.117Z,18.00
2023-04-27T06:16:51.500Z,17.34
2023-04-27T06:19:21.416Z,16.86
2023-04-27T06:21:52.747Z,18.33
2023-04-27T06:24:21.259Z,18.10
2023-04-27T06:26:50.498Z,19.03
2023-04-27T06:29:18.872Z,18.40
2023-04-27T06:31:47.348Z,18.08
2023-04-27T06:34:15.708Z,18.32
2023-04-27T06:36:45.362Z,19.06
2023-04-27T06:39:14.085Z,19.30
2023-04-27T06:41:42.570Z,19.56
2023-04-27T06:44:10.974Z,19.82
2023-04-27T06:46:39.300Z,19.95
2023-04-27T06:49:07.553Z,18.67
2023-04-27T06:51:35.747Z,18.02
2023-04-27T06:54:06.024Z,18.10
2023-04-27T06:56:34.264Z,19.21
2023-04-27T06:59:02.519Z,19.09
2023-04-27T07:01:30.716Z,18.58
2023-04-27T07:03:59.120Z,19.09
2023-04-27T07:06:28.774Z,20.16
2023-04-27T07:08:57.166Z,18.87
2023-04-27T07:11:26.838Z,19.97
2023-04-27T07:13:55.136Z,20.77
2023-04-27T07:16:23.404Z,20.95
2023-04-27T07:18:51.665Z,19.84
2023-04-27T07:21:19.842Z,19.76
2023-04-27T07:23:48.149Z,21.06
2023-04-27T07:26:16.912Z,20.54
2023-04-27T07:28:47.256Z,21.25
2023-04-27T07:31:15.531Z,21.68
2023-04-27T07:33:44.233Z,20.43
2023-04-27T07:36:12.415Z,21.73
2023-04-27T07:38:40.675Z,21.79
2023-04-27T07:41:09.079Z,22.40
2023-04-27T07:43:37.302Z,22.14
2023-04-27T07:46:07.682Z,21.55
2023-04-27T07:48:35.968Z,21.00
2023-04-27T07:51:04.337Z,21.69
2023-04-27T07:53:32.642Z,22.07
2023-04-27T07:56:00.998Z,22.32
2023-04-27T07:58:29.212Z,21.15
2023-04-27T08:00:57.531Z,20.79
2023-04-27T08:03:27.313Z,20.91
2023-04-27T08:05:56.320Z,21.01
2023-04-27T08:08:24.811Z,21.55
2023-04-27T08:10:53.083Z,20.77
2023-04-27T08:13:22.159Z,22.26
2023-04-27T08:15:51.428Z,21.59
2023-04-27T08:18:19.880Z,21.57
2023-04-27T08:20:49.480Z,21.39
2023-04-27T08:23:17.775Z,21.54
2023-04-27T08:25:46.067Z,22.59
2023-04-27T08:28:14.627Z,23.37
2023-04-27T08:30:43.339Z,21.99
2023-04-27T08:33:12.144Z,21.46
2023-04-27T08:35:40.587Z,21.30
2023-04-27T08:38:10.200Z,21.90
2023-04-27T08:40:43.618Z,23.33
2023-04-27T08:43:12.032Z,22.64
2023-04-27T08:45:40.522Z,23.10
2023-04-27T08:48:09.926Z,22.63
2023-04-27T08:50:40.021Z,22.78
2023-04-27T08:53:19.437Z,24.18
2023-04-27T08:55:47.779Z,22.64
2023-04-27T08:58:16.157Z,22.76
2023-04-27T09:00:46.128Z,23.50
2023-04-27T09:03:23.342Z,24.01
2023-04-27T09:06:03.533Z,22.16
2023-04-27T09:08:44.289Z,22.25
2023-04-27T09:11:12.931Z,24.34
2023-04-27T09:13:45.080Z,23.65
2023-04-27T09:16:14.311Z,24.52
2023-04-27T09:18:43.901Z,25.15
2023-04-27T09:21:12.177Z,21.71
2023-04-27T09:23:41.990Z,22.37
2023-04-27T09:26:21.697Z,23.58
2023-04-27T09:28:51.870Z,23.00
2023-04-27T09:31:20.704Z,22.80
2023-04-27T09:33:56.078Z,24.00
2023-04-27T09:36:24.546Z,23.32
2023-04-27T09:38:53.530Z,24.28
2023-04-27T09:41:23.241Z,22.19
2023-04-27T09:43:51.826Z,22.67
2023-04-27T09:46:21.161Z,23.72
2023-04-27T09:48:50.678Z,22.65
2023-04-27T09:51:19.091Z,23.00
2023-04-27T09:53:51.469Z,22.07
2023-04-27T09:56:29.319Z,23.14
2023-04-27T09:59:12.143Z,22.73
2023-04-27T10:01:43.964Z,22.47
2023-04-27T10:04:28.464Z,23.06
2023-04-27T10:07:01.605Z,23.07
2023-04-27T10:09:36.610Z,22.32
2023-04-27T10:12:19.964Z,22.38
2023-04-27T10:14:52.607Z,21.86
2023-04-27T10:17:24.592Z,21.79
2023-04-27T10:19:58.606Z,23.07
2023-04-27T10:22:39.849Z,21.76
2023-04-27T10:25:16.568Z,22.85
2023-04-27T10:27:50.550Z,21.61
2023-04-27T10:30:19.813Z,22.32
2023-04-27T10:32:55.640Z,22.59
2023-04-27T10:35:33.941Z,23.91
2023-04-27T10:38:09.387Z,24.59
2023-04-27T10:40:38.638Z,23.81
2023-04-27T10:43:12.265Z,24.43
2023-04-27T10:45:40.958Z,24.61
2023-04-27T10:48:09.501Z,25.46
2023-04-27T10:50:37.880Z,24.95
2023-04-27T10:53:08.326Z,23.29
2023-04-27T10:55:38.273Z,24.90
2023-04-27T10:58:06.858Z,24.07
2023-04-27T11:00:38.937Z,23.85
2023-04-27T11:03:17.107Z,22.67
2023-04-27T11:05:46.786Z,24.07
2023-04-27T11:08:16.339Z,23.18
2023-04-27T11:10:47.138Z,23.41
2023-04-27T11:13:18.104Z,24.35
2023-04-27T11:15:49.098Z,23.42
2023-04-27T11:18:18.430Z,24.45
2023-04-27T11:20:49.722Z,22.74
2023-04-27T11:23:26.022Z,22.78
2023-04-27T11:25:54.621Z,23.98
2023-04-27T11:28:23.001Z,23.67
2023-04-27T11:30:58.597Z,23.98
2023-04-27T11:33:27.621Z,23.91
2023-04-27T11:35:56.510Z,23.64
2023-04-27T11:38:26.575Z,24.52
2023-04-27T11:41:01.988Z,24.19
2023-04-27T11:43:30.251Z,24.22
2023-04-27T11:46:00.154Z,23.00
2023-04-27T11:48:28.740Z,24.16
2023-04-27T11:50:59.173Z,23.76
2023-04-27T11:53:30.602Z,24.16
2023-04-27T11:56:01.075Z,24.45
2023-04-27T11:58:29.251Z,24.97
2023-04-27T12:00:59.213Z,25.79
2023-04-27T12:03:28.971Z,25.98
2023-04-27T12:06:04.058Z,25.37
2023-04-27T12:08:40.237Z,25.22
2023-04-27T12:11:08.579Z,25.75
2023-04-27T12:13:37.709Z,26.47
2023-04-27T12:16:08.588Z,25.73
2023-04-27T12:18:37.047Z,24.96
2023-04-27T12:21:08.544Z,25.26
2023-04-27T12:23:37.358Z,25.32
2023-04-27T12:26:05.874Z,24.74
2023-04-27T12:28:34.597Z,24.48
2023-04-27T12:31:04.943Z,24.76
2023-04-27T12:33:34.573Z,24.47
2023-04-27T12:36:03.020Z,24.77
2023-04-27T12:38:31.309Z,24.70
2023-04-27T12:41:00.815Z,24.91
2023-04-27T12:43:29.133Z,24.47
2023-04-27T12:45:57.544Z,25.06
2023-04-27T12:48:26.411Z,25.53
2023-04-27T12:50:56.277Z,26.32
2023-04-27T12:53:24.519Z,26.06
2023-04-27T12:55:53.504Z,25.21
2023-04-27T12:58:21.760Z,25.07
2023-04-27T13:00:50.356Z,25.78
2023-04-27T13:03:18.873Z,25.95
2023-04-27T13:05:47.159Z,26.40
2023-04-27T13:08:17.098Z,24.38
2023-04-27T13:10:45.494Z,25.44
2023-04-27T13:13:13.727Z,25.86
2023-04-27T13:15:42.001Z,27.26
2023-04-27T13:18:10.383Z,26.42
2023-04-27T13:20:39.111Z,25.80
2023-04-27T13:23:07.619Z,26.62
2023-04-27T13:25:37.417Z,26.93
2023-04-27T13:28:05.958Z,26.64
2023-04-27T13:30:34.468Z,27.87
2023-04-27T13:33:14.662Z,27.15
2023-04-27T13:35:49.806Z,26.38
2023-04-27T13:38:18.136Z,26.70
2023-04-27T13:40:47.754Z,26.88
2023-04-27T13:43:16.147Z,26.55
2023-04-27T13:45:48.186Z,27.34
2023-04-27T13:48:16.538Z,27.68
2023-04-27T13:50:44.758Z,27.41
2023-04-27T13:53:13.062Z,27.63
2023-04-27T13:55:41.320Z,28.08
2023-04-27T13:58:11.574Z,28.90
2023-04-27T14:00:39.944Z,28.17
2023-04-27T14:03:09.016Z,28.35
2023-04-27T14:05:37.459Z,28.14
2023-04-27T14:08:06.264Z,27.18
2023-04-27T14:10:34.541Z,27.71
2023-04-27T14:13:02.724Z,26.21
2023-04-27T14:15:36.327Z,26.86
2023-04-27T14:18:06.052Z,25.74
2023-04-27T14:20:34.552Z,26.43
2023-04-27T14:23:04.033Z,25.73
2023-04-27T14:25:34.465Z,24.71
2023-04-27T14:28:04.204Z,25.79
2023-04-27T14:30:34.517Z,25.41
2023-04-27T14:33:02.860Z,25.64
2023-04-27T14:35:31.410Z,25.41
2023-04-27T14:38:02.333Z,25.53
2023-04-27T14:40:31.209Z,25.43
2023-04-27T14:42:59.617Z,26.59
2023-04-27T14:45:36.707Z,25.61
2023-04-27T14:48:13.578Z,26.25
2023-04-27T14:50:41.978Z,25.42
2023-04-27T14:53:10.591Z,26.07
2023-04-27T14:55:39.152Z,26.08
2023-04-27T14:58:07.477Z,26.74
2023-04-27T15:00:35.745Z,26.84
2023-04-27T15:03:04.412Z,25.80
2023-04-27T15:05:34.306Z,27.23
2023-04-27T15:08:02.586Z,26.08
2023-04-27T15:10:31.123Z,25.55
2023-04-27T15:12:59.410Z,25.34
2023-04-27T15:15:27.622Z,24.74
2023-04-27T15:17:55.935Z,24.60
2023-04-27T15:20:24.418Z,24.59
2023-04-27T15:22:54.188Z,24.53
2023-04-27T15:25:22.733Z,25.61
2023-04-27T15:27:51.163Z,26.14
2023-04-27T15:30:19.524Z,25.71
2023-04-27T15:32:49.236Z,24.82
2023-04-27T15:35:17.682Z,24.63
2023-04-27T15:37:45.945Z,25.33
2023-04-27T15:40:15.664Z,24.22
2023-04-27T15:42:43.924Z,24.65
2023-04-27T15:45:12.534Z,25.73
2023-04-27T15:47:40.788Z,24.79
2023-04-27T15:50:09.406Z,25.26
2023-04-27T15:52:37.636Z,24.98
2023-04-27T15:55:07.081Z,25.06
2023-04-27T15:57:36.694Z,25.70
2023-04-27T16:00:10.146Z,25.51
2023-04-27T16:02:38.810Z,25.97
2023-04-27T16:05:08.153Z,24.81
2023-04-27T16:07:37.382Z,26.11
2023-04-27T16:10:06.863Z,26.52
2023-04-27T16:12:36.707Z,26.38
2023-04-27T16:15:07.985Z,25.62
2023-04-27T16:17:37.724Z,26.01
2023-04-27T16:20:07.782Z,26.47
2023-04-27T16:22:36.504Z,26.50
2023-04-27T16:25:10.171Z,26.15
2023-04-27T16:27:39.989Z,25.85
2023-04-27T16:30:09.222Z,25.95
2023-04-27T16:32:38.787Z,26.16
2023-04-27T16:35:08.159Z,25.32
2023-04-27T16:37:36.419Z,24.93
2023-04-27T16:40:09.236Z,24.80
2023-04-27T16:42:38.939Z,24.90
2023-04-27T16:45:10.055Z,25.06
2023-04-27T16:47:39.211Z,25.11
2023-04-27T16:50:08.015Z,24.64
2023-04-27T16:52:36.402Z,24.90
2023-04-27T16:55:05.938Z,24.69
2023-04-27T16:57:34.407Z,24.83
2023-04-27T17:00:06.084Z,24.68
2023-04-27T17:02:49.648Z,24.92
2023-04-27T17:05:21.318Z,24.06
2023-04-27T17:07:51.007Z,24.03
2023-04-27T17:10:19.520Z,24.95
2023-04-27T17:12:47.790Z,24.21
2023-04-27T17:15:18.219Z,24.20
2023-04-27T17:17:46.328Z,24.13
2023-04-27T17:20:14.570Z,23.56
2023-04-27T17:22:42.790Z,24.16
2023-04-27T17:25:11.361Z,24.30
2023-04-27T17:27:39.778Z,24.07
2023-04-27T17:30:09.578Z,23.96
2023-04-27T17:32:39.333Z,23.94
2023-04-27T17:35:11.728Z,23.95
2023-04-27T17:37:39.987Z,23.05
2023-04-27T17:40:09.489Z,23.80
2023-04-27T17:42:37.823Z,23.30
2023-04-27T17:45:06.998Z,23.01
2023-04-27T17:47:35.385Z,22.72
2023-04-27T17:50:05.477Z,22.67
2023-04-27T17:52:33.839Z,22.82
2023-04-27T17:55:02.092Z,23.07
2023-04-27T17:57:30.406Z,24.04
2023-04-27T17:59:58.762Z,24.14
2023-04-27T18:02:27.252Z,24.10
2023-04-27T18:04:55.765Z,24.13
2023-04-27T18:07:25.633Z,24.16
2023-04-27T18:09:53.876Z,23.75
2023-04-27T18:12:22.182Z,23.44
2023-04-27T18:14:51.294Z,23.06
2023-04-27T18:17:19.645Z,23.06
2023-04-27T18:19:53.215Z,22.25
2023-04-27T18:22:27.927Z,22.12
2023-04-27T18:24:56.460Z,21.76
2023-04-27T18:27:24.684Z,21.67
2023-04-27T18:29:52.931Z,21.37
2023-04-27T18:32:21.570Z,21.42
2023-04-27T18:34:49.872Z,20.71
2023-04-27T18:37:18.117Z,20.90
2023-04-27T18:39:47.697Z,20.55
2023-04-27T18:42:16.077Z,20.42
2023-04-27T18:44:44.349Z,20.37
2023-04-27T18:47:13.781Z,20.47
2023-04-27T18:49:42.069Z,19.89
2023-04-27T18:52:11.553Z,20.01
2023-04-27T18:54:39.909Z,20.30
2023-04-27T18:57:09.541Z,20.12
2023-04-27T18:59:39.184Z,19.81
2023-04-27T19:02:08.714Z,19.94
2023-04-27T19:04:37.315Z,19.28
2023-04-27T19:07:06.575Z,19.35
2023-04-27T19:09:34.867Z,19.34
2023-04-27T19:12:03.831Z,19.60
2023-04-27T19:14:33.594Z,19.72
2023-04-27T19:17:02.059Z,19.77
2023-04-27T19:19:30.439Z,20.02
2023-04-27T19:21:59.865Z,19.47
2023-04-27T19:24:28.165Z,19.40
2023-04-27T19:26:56.439Z,19.51
2023-04-27T19:29:26.385Z,19.97
2023-04-27T19:31:56.209Z,19.84
2023-04-27T19:34:24.552Z,19.30
2023-04-27T19:36:54.066Z,19.21
2023-04-27T19:39:22.475Z,18.69
2023-04-27T19:41:50.796Z,18.82
2023-04-27T19:44:19.053Z,18.47
2023-04-27T19:46:47.395Z,19.30
2023-04-27T19:49:17.042Z,19.12
2023-04-27T19:51:45.318Z,18.96
2023-04-27T19:54:14.079Z,19.32
2023-04-27T19:56:42.480Z,19.13
2023-04-27T19:59:11.384Z,18.84
2023-04-27T20:01:39.811Z,18.64
2023-04-27T20:04:08.256Z,18.44
2023-04-27T20:06:38.008Z,18.57
2023-04-27T20:09:06.256Z,18.68
2023-04-27T20:11:34.669Z,18.58
2023-04-27T20:14:03.009Z,18.80
2023-04-27T20:16:31.612Z,18.97
2023-04-27T20:18:59.892Z,18.90
2023-04-27T20:21:29.573Z,18.75
2023-04-27T20:23:59.316Z,18.94
2023-04-27T20:26:27.535Z,18.96
2023-04-27T20:28:55.801Z,18.81
2023-04-27T20:31:24.265Z,18.35
2023-04-27T20:33:52.678Z,18.46
2023-04-27T20:36:23.087Z,18.64
2023-04-27T20:38:51.353Z,18.06
2023-04-27T20:41:21.558Z,18.00
2023-04-27T20:43:52.444Z,17.84
2023-04-27T20:46:21.140Z,17.70
2023-04-27T20:48:49.497Z,17.94
2023-04-27T20:51:17.730Z,17.96
2023-04-27T20:53:46.202Z,18.19
2023-04-27T20:56:15.130Z,18.24
2023-04-27T20:58:44.750Z,18.38
2023-04-27T21:01:13.057Z,18.15
2023-04-27T21:03:41.585Z,18.10
2023-04-27T21:06:10.130Z,18.22
2023-04-27T21:08:38.598Z,18.19
2023-04-27T21:11:07.494Z,18.21
2023-04-27T21:13:35.977Z,18.06
2023-04-27T21:16:06.035Z,18.24
2023-04-27T21:18:34.369Z,17.92
2023-04-27T21:21:02.706Z,18.03
2023-04-27T21:23:31.067Z,18.32
2023-04-27T21:25:59.345Z,18.39
2023-04-27T21:28:27.638Z,18.11
2023-04-27T21:30:55.897Z,18.07
2023-04-27T21:33:25.660Z,18.11
2023-04-27T21:35:53.953Z,17.82
2023-04-27T21:38:22.345Z,17.72
2023-04-27T21:40:51.138Z,17.65
2023-04-27T21:43:19.477Z,17.63
2023-04-27T21:45:48.027Z,17.54
2023-04-27T21:48:16.376Z,17.46
2023-04-27T21:50:46.174Z,17.47
2023-04-27T21:53:15.844Z,17.37
2023-04-27T21:55:44.166Z,17.35
2023-04-27T21:58:12.421Z,17.35
2023-04-27T22:00:40.706Z,17.26
2023-04-27T22:03:09.211Z,17.14
2023-04-27T22:05:37.766Z,17.03
2023-04-27T22:08:08.946Z,17.32
2023-04-27T22:10:37.402Z,16.85
2023-04-27T22:13:17.688Z,16.70
2023-04-27T22:15:47.608Z,16.84
2023-04-27T22:18:16.162Z,16.97
2023-04-27T22:20:44.621Z,17.23
2023-04-27T22:23:14.355Z,17.29
2023-04-27T22:25:43.229Z,17.31
2023-04-27T22:28:12.068Z,17.33
2023-04-27T22:30:41.631Z,17.17
2023-04-27T22:33:10.416Z,17.07
2023-04-27T22:35:38.765Z,17.11
2023-04-27T22:38:07.471Z,16.83
2023-04-27T22:40:37.227Z,17.00
2023-04-27T22:43:05.477Z,16.72
2023-04-27T22:45:33.858Z,16.67
2023-04-27T22:48:03.294Z,16.64
2023-04-27T22:50:31.627Z,16.35
2023-04-27T22:53:00.637Z,16.31
2023-04-27T22:55:29.095Z,16.40
2023-04-27T22:57:58.790Z,16.65
2023-04-27T23:00:27.563Z,16.27
2023-04-27T23:02:55.930Z,16.27
2023-04-27T23:05:24.691Z,16.22
2023-04-27T23:07:52.965Z,16.31
2023-04-27T23:10:21.535Z,16.21
2023-04-27T23:12:50.699Z,16.23
2023-04-27T23:15:20.796Z,16.35
2023-04-27T23:17:49.302Z,16.07
2023-04-27T23:22:52.693Z,16.08
2023-04-27T23:25:21.512Z,16.22
2023-04-27T23:27:51.896Z,16.24
2023-04-27T23:30:22.892Z,16.58
2023-04-27T23:32:51.230Z,16.24
2023-04-27T23:35:19.596Z,16.30
2023-04-27T23:37:47.888Z,16.35
2023-04-27T23:40:16.301Z,16.47
2023-04-27T23:42:44.681Z,16.47
2023-04-27T23:45:13.317Z,16.54
2023-04-27T23:47:43.279Z,16.65
2023-04-27T23:50:11.790Z,16.19
2023-04-27T23:52:40.092Z,16.07
2023-04-27T23:55:09.403Z,16.44
2023-04-27T23:57:37.816Z,16.37
